sensor_id;sensor_type;location;lat;lon;timestamp;temperature;humidity
4223;DHT22;2125;51.436;14.138;2022-09-09T00:00:46;13.80;84.40
4223;DHT22;2125;51.436;14.138;2022-09-09T00:03:17;13.80;84.50
4223;DHT22;2125;51.436;14.138;2022-09-09T00:05:51;13.80;84.40
4223;DHT22;2125;51.436;14.138;2022-09-09T00:08:27;13.80;84.40
4223;DHT22;2125;51.436;14.138;2022-09-09T00:10:59;13.90;84.30
4223;DHT22;2125;51.436;14.138;2022-09-09T00:13:34;13.90;84.30
4223;DHT22;2125;51.436;14.138;2022-09-09T00:16:08;13.90;84.30
4223;DHT22;2125;51.436;14.138;2022-09-09T00:18:49;13.90;84.30
4223;DHT22;2125;51.436;14.138;2022-09-09T00:21:18;13.90;84.40
4223;DHT22;2125;51.436;14.138;2022-09-09T00:23:49;13.90;84.40
4223;DHT22;2125;51.436;14.138;2022-09-09T00:26:21;13.90;84.40
4223;DHT22;2125;51.436;14.138;2022-09-09T00:28:55;13.90;84.40
4223;DHT22;2125;51.436;14.138;2022-09-09T00:31:28;13.90;84.40
4223;DHT22;2125;51.436;14.138;2022-09-09T00:34:00;13.90;84.50
4223;DHT22;2125;51.436;14.138;2022-09-09T00:36:31;13.80;84.50
4223;DHT22;2125;51.436;14.138;2022-09-09T00:39:01;13.80;84.60
4223;DHT22;2125;51.436;14.138;2022-09-09T00:41:39;13.80;84.70
4223;DHT22;2125;51.436;14.138;2022-09-09T00:44:20;13.70;84.60
4223;DHT22;2125;51.436;14.138;2022-09-09T00:47:04;13.70;84.60
4223;DHT22;2125;51.436;14.138;2022-09-09T00:49:39;13.70;84.70
4223;DHT22;2125;51.436;14.138;2022-09-09T00:52:17;13.60;84.80
4223;DHT22;2125;51.436;14.138;2022-09-09T00:54:53;13.60;84.80
4223;DHT22;2125;51.436;14.138;2022-09-09T00:57:25;13.60;84.80
4223;DHT22;2125;51.436;14.138;2022-09-09T01:00:00;13.60;84.80
4223;DHT22;2125;51.436;14.138;2022-09-09T01:02:37;13.60;84.80
4223;DHT22;2125;51.436;14.138;2022-09-09T01:05:11;13.50;84.80
4223;DHT22;2125;51.436;14.138;2022-09-09T01:07:40;13.50;84.80
4223;DHT22;2125;51.436;14.138;2022-09-09T01:10:17;13.50;84.80
4223;DHT22;2125;51.436;14.138;2022-09-09T01:12:51;13.50;84.80
4223;DHT22;2125;51.436;14.138;2022-09-09T01:15:22;13.40;84.70
4223;DHT22;2125;51.436;14.138;2022-09-09T01:17:58;13.50;84.60
4223;DHT22;2125;51.436;14.138;2022-09-09T01:20:29;13.40;84.60
4223;DHT22;2125;51.436;14.138;2022-09-09T01:23:15;13.50;84.50
4223;DHT22;2125;51.436;14.138;2022-09-09T01:26:11;13.60;84.40
4223;DHT22;2125;51.436;14.138;2022-09-09T01:28:40;13.60;84.40
4223;DHT22;2125;51.436;14.138;2022-09-09T01:31:12;13.50;84.30
4223;DHT22;2125;51.436;14.138;2022-09-09T01:33:40;13.50;84.30
4223;DHT22;2125;51.436;14.138;2022-09-09T01:36:10;13.50;84.30
4223;DHT22;2125;51.436;14.138;2022-09-09T01:38:39;13.60;84.20
4223;DHT22;2125;51.436;14.138;2022-09-09T01:41:06;13.50;84.30
4223;DHT22;2125;51.436;14.138;2022-09-09T01:43:34;13.50;84.40
4223;DHT22;2125;51.436;14.138;2022-09-09T01:46:01;13.40;84.40
4223;DHT22;2125;51.436;14.138;2022-09-09T01:48:29;13.40;84.50
4223;DHT22;2125;51.436;14.138;2022-09-09T01:50:56;13.30;84.50
4223;DHT22;2125;51.436;14.138;2022-09-09T01:53:23;13.20;84.50
4223;DHT22;2125;51.436;14.138;2022-09-09T01:55:59;13.30;84.50
4223;DHT22;2125;51.436;14.138;2022-09-09T01:58:37;13.30;84.60
4223;DHT22;2125;51.436;14.138;2022-09-09T02:01:10;13.20;84.70
4223;DHT22;2125;51.436;14.138;2022-09-09T02:03:46;13.20;84.90
4223;DHT22;2125;51.436;14.138;2022-09-09T02:06:24;13.20;84.90
4223;DHT22;2125;51.436;14.138;2022-09-09T02:08:54;13.10;85.00
4223;DHT22;2125;51.436;14.138;2022-09-09T02:11:24;13.00;85.00
4223;DHT22;2125;51.436;14.138;2022-09-09T02:13:55;12.90;85.00
4223;DHT22;2125;51.436;14.138;2022-09-09T02:16:27;12.90;85.00
4223;DHT22;2125;51.436;14.138;2022-09-09T02:18:57;12.90;85.00
4223;DHT22;2125;51.436;14.138;2022-09-09T02:21:27;12.90;85.00
4223;DHT22;2125;51.436;14.138;2022-09-09T02:23:56;12.90;85.00
4223;DHT22;2125;51.436;14.138;2022-09-09T02:26:25;12.90;84.90
4223;DHT22;2125;51.436;14.138;2022-09-09T02:28:55;12.90;84.90
4223;DHT22;2125;51.436;14.138;2022-09-09T02:31:25;12.90;84.90
4223;DHT22;2125;51.436;14.138;2022-09-09T02:33:54;12.90;84.90
4223;DHT22;2125;51.436;14.138;2022-09-09T02:36:23;12.90;84.90
4223;DHT22;2125;51.436;14.138;2022-09-09T02:38:51;12.90;84.90
4223;DHT22;2125;51.436;14.138;2022-09-09T02:41:20;12.90;84.90
4223;DHT22;2125;51.436;14.138;2022-09-09T02:43:50;12.80;85.00
4223;DHT22;2125;51.436;14.138;2022-09-09T02:46:28;12.70;85.00
4223;DHT22;2125;51.436;14.138;2022-09-09T02:49:00;12.70;85.00
4223;DHT22;2125;51.436;14.138;2022-09-09T02:51:35;12.70;85.10
4223;DHT22;2125;51.436;14.138;2022-09-09T02:54:10;12.60;85.10
4223;DHT22;2125;51.436;14.138;2022-09-09T02:56:42;12.50;85.10
4223;DHT22;2125;51.436;14.138;2022-09-09T02:59:10;12.50;85.10
4223;DHT22;2125;51.436;14.138;2022-09-09T03:01:38;12.50;85.10
4223;DHT22;2125;51.436;14.138;2022-09-09T03:04:05;12.50;85.00
4223;DHT22;2125;51.436;14.138;2022-09-09T03:06:32;12.50;85.00
4223;DHT22;2125;51.436;14.138;2022-09-09T03:08:59;12.50;84.90
4223;DHT22;2125;51.436;14.138;2022-09-09T03:11:27;12.50;84.90
4223;DHT22;2125;51.436;14.138;2022-09-09T03:13:54;12.50;84.80
4223;DHT22;2125;51.436;14.138;2022-09-09T03:16:21;12.60;84.80
4223;DHT22;2125;51.436;14.138;2022-09-09T03:18:49;12.60;84.70
4223;DHT22;2125;51.436;14.138;2022-09-09T03:21:16;12.60;84.70
4223;DHT22;2125;51.436;14.138;2022-09-09T03:23:43;12.60;84.80
4223;DHT22;2125;51.436;14.138;2022-09-09T03:26:10;12.60;84.70
4223;DHT22;2125;51.436;14.138;2022-09-09T03:28:39;12.60;84.70
4223;DHT22;2125;51.436;14.138;2022-09-09T03:31:05;12.60;84.80
4223;DHT22;2125;51.436;14.138;2022-09-09T03:33:36;12.50;84.80
4223;DHT22;2125;51.436;14.138;2022-09-09T03:36:04;12.40;84.90
4223;DHT22;2125;51.436;14.138;2022-09-09T03:38:32;12.40;84.90
4223;DHT22;2125;51.436;14.138;2022-09-09T03:41:00;12.40;84.80
4223;DHT22;2125;51.436;14.138;2022-09-09T03:43:28;12.40;84.80
4223;DHT22;2125;51.436;14.138;2022-09-09T03:45:54;12.40;84.70
4223;DHT22;2125;51.436;14.138;2022-09-09T03:48:22;12.40;84.70
4223;DHT22;2125;51.436;14.138;2022-09-09T03:50:51;12.40;84.80
4223;DHT22;2125;51.436;14.138;2022-09-09T03:53:22;12.40;84.90
4223;DHT22;2125;51.436;14.138;2022-09-09T03:55:51;12.30;84.90
4223;DHT22;2125;51.436;14.138;2022-09-09T03:58:20;12.30;84.90
4223;DHT22;2125;51.436;14.138;2022-09-09T04:00:53;12.20;84.90
4223;DHT22;2125;51.436;14.138;2022-09-09T04:03:20;12.30;84.80
4223;DHT22;2125;51.436;14.138;2022-09-09T04:05:48;12.30;84.80
4223;DHT22;2125;51.436;14.138;2022-09-09T04:08:15;12.30;84.80
4223;DHT22;2125;51.436;14.138;2022-09-09T04:10:44;12.30;84.80
4223;DHT22;2125;51.436;14.138;2022-09-09T04:13:12;12.30;84.80
4223;DHT22;2125;51.436;14.138;2022-09-09T04:15:41;12.30;84.70
4223;DHT22;2125;51.436;14.138;2022-09-09T04:18:09;12.30;84.70
4223;DHT22;2125;51.436;14.138;2022-09-09T04:20:36;12.30;84.80
4223;DHT22;2125;51.436;14.138;2022-09-09T04:23:03;12.30;84.70
4223;DHT22;2125;51.436;14.138;2022-09-09T04:25:29;12.30;84.70
4223;DHT22;2125;51.436;14.138;2022-09-09T04:27:57;12.20;84.70
4223;DHT22;2125;51.436;14.138;2022-09-09T04:30:25;12.20;84.80
4223;DHT22;2125;51.436;14.138;2022-09-09T04:32:52;12.20;84.70
4223;DHT22;2125;51.436;14.138;2022-09-09T04:35:19;12.20;84.70
4223;DHT22;2125;51.436;14.138;2022-09-09T04:37:46;12.30;84.80
4223;DHT22;2125;51.436;14.138;2022-09-09T04:40:13;12.20;84.80
4223;DHT22;2125;51.436;14.138;2022-09-09T04:42:40;12.20;84.80
4223;DHT22;2125;51.436;14.138;2022-09-09T04:45:10;12.30;84.80
4223;DHT22;2125;51.436;14.138;2022-09-09T04:47:38;12.30;84.80
4223;DHT22;2125;51.436;14.138;2022-09-09T04:50:07;12.40;85.10
4223;DHT22;2125;51.436;14.138;2022-09-09T04:52:34;12.30;85.20
4223;DHT22;2125;51.436;14.138;2022-09-09T04:55:01;12.20;85.30
4223;DHT22;2125;51.436;14.138;2022-09-09T04:57:28;12.20;85.30
4223;DHT22;2125;51.436;14.138;2022-09-09T04:59:57;12.30;85.20
4223;DHT22;2125;51.436;14.138;2022-09-09T05:02:25;12.40;85.20
4223;DHT22;2125;51.436;14.138;2022-09-09T05:04:51;12.50;85.00
4223;DHT22;2125;51.436;14.138;2022-09-09T05:07:18;12.70;84.90
4223;DHT22;2125;51.436;14.138;2022-09-09T05:09:45;12.80;84.90
4223;DHT22;2125;51.436;14.138;2022-09-09T05:12:13;12.90;84.90
4223;DHT22;2125;51.436;14.138;2022-09-09T05:14:40;13.00;84.70
4223;DHT22;2125;51.436;14.138;2022-09-09T05:17:06;13.10;85.00
4223;DHT22;2125;51.436;14.138;2022-09-09T05:19:34;13.00;85.10
4223;DHT22;2125;51.436;14.138;2022-09-09T05:22:01;13.00;85.10
4223;DHT22;2125;51.436;14.138;2022-09-09T05:24:27;13.00;85.10
4223;DHT22;2125;51.436;14.138;2022-09-09T05:26:54;13.00;85.10
4223;DHT22;2125;51.436;14.138;2022-09-09T05:29:25;13.10;85.10
4223;DHT22;2125;51.436;14.138;2022-09-09T05:31:52;13.20;85.10
4223;DHT22;2125;51.436;14.138;2022-09-09T05:34:18;13.30;85.10
4223;DHT22;2125;51.436;14.138;2022-09-09T05:36:47;13.40;85.10
4223;DHT22;2125;51.436;14.138;2022-09-09T05:39:13;13.50;85.00
4223;DHT22;2125;51.436;14.138;2022-09-09T05:41:40;13.60;84.90
4223;DHT22;2125;51.436;14.138;2022-09-09T05:44:07;13.80;84.90
4223;DHT22;2125;51.436;14.138;2022-09-09T05:46:33;13.90;84.80
4223;DHT22;2125;51.436;14.138;2022-09-09T05:49:00;14.20;84.70
4223;DHT22;2125;51.436;14.138;2022-09-09T05:51:28;14.30;84.70
4223;DHT22;2125;51.436;14.138;2022-09-09T05:53:56;14.50;84.80
4223;DHT22;2125;51.436;14.138;2022-09-09T05:56:26;14.70;84.80
4223;DHT22;2125;51.436;14.138;2022-09-09T05:58:54;14.80;84.70
4223;DHT22;2125;51.436;14.138;2022-09-09T06:01:22;15.00;84.80
4223;DHT22;2125;51.436;14.138;2022-09-09T06:03:50;15.10;84.80
4223;DHT22;2125;51.436;14.138;2022-09-09T06:06:18;15.30;84.80
4223;DHT22;2125;51.436;14.138;2022-09-09T06:08:46;15.40;84.80
4223;DHT22;2125;51.436;14.138;2022-09-09T06:11:16;15.40;84.80
4223;DHT22;2125;51.436;14.138;2022-09-09T06:13:43;15.40;84.80
4223;DHT22;2125;51.436;14.138;2022-09-09T06:26:31;15.70;84.80
4223;DHT22;2125;51.436;14.138;2022-09-09T06:29:19;15.80;84.80
4223;DHT22;2125;51.436;14.138;2022-09-09T06:31:53;15.90;84.80
4223;DHT22;2125;51.436;14.138;2022-09-09T06:34:34;16.00;84.70
4223;DHT22;2125;51.436;14.138;2022-09-09T06:37:25;16.20;84.70
4223;DHT22;2125;51.436;14.138;2022-09-09T06:39:55;16.40;84.60
4223;DHT22;2125;51.436;14.138;2022-09-09T06:42:25;16.50;84.50
4223;DHT22;2125;51.436;14.138;2022-09-09T06:45:01;16.70;84.40
4223;DHT22;2125;51.436;14.138;2022-09-09T06:47:42;16.80;84.20
4223;DHT22;2125;51.436;14.138;2022-09-09T06:50:17;16.90;84.10
4223;DHT22;2125;51.436;14.138;2022-09-09T06:52:49;17.00;84.00
4223;DHT22;2125;51.436;14.138;2022-09-09T06:55:21;17.10;83.80
4223;DHT22;2125;51.436;14.138;2022-09-09T06:57:56;17.30;83.60
4223;DHT22;2125;51.436;14.138;2022-09-09T07:00:23;17.40;83.30
4223;DHT22;2125;51.436;14.138;2022-09-09T07:03:01;17.50;83.10
4223;DHT22;2125;51.436;14.138;2022-09-09T07:05:32;17.60;82.90
4223;DHT22;2125;51.436;14.138;2022-09-09T07:07:59;17.60;82.60
4223;DHT22;2125;51.436;14.138;2022-09-09T07:10:29;17.80;82.60
4223;DHT22;2125;51.436;14.138;2022-09-09T07:13:10;17.80;82.50
4223;DHT22;2125;51.436;14.138;2022-09-09T07:16:03;17.80;82.10
4223;DHT22;2125;51.436;14.138;2022-09-09T07:18:44;17.90;82.00
4223;DHT22;2125;51.436;14.138;2022-09-09T07:21:11;18.10;81.80
4223;DHT22;2125;51.436;14.138;2022-09-09T07:23:39;18.40;81.70
4223;DHT22;2125;51.436;14.138;2022-09-09T07:26:08;18.60;80.80
4223;DHT22;2125;51.436;14.138;2022-09-09T07:28:40;18.80;80.40
4223;DHT22;2125;51.436;14.138;2022-09-09T07:31:23;18.90;79.50
4223;DHT22;2125;51.436;14.138;2022-09-09T07:33:53;19.00;78.90
4223;DHT22;2125;51.436;14.138;2022-09-09T07:36:36;19.00;78.60
4223;DHT22;2125;51.436;14.138;2022-09-09T07:42:10;19.40;78.30
4223;DHT22;2125;51.436;14.138;2022-09-09T07:44:54;19.70;77.50
4223;DHT22;2125;51.436;14.138;2022-09-09T07:47:21;19.90;78.50
4223;DHT22;2125;51.436;14.138;2022-09-09T07:49:50;19.80;76.60
4223;DHT22;2125;51.436;14.138;2022-09-09T07:52:20;19.90;77.70
4223;DHT22;2125;51.436;14.138;2022-09-09T07:54:46;19.90;75.40
4223;DHT22;2125;51.436;14.138;2022-09-09T07:57:13;20.00;77.10
4223;DHT22;2125;51.436;14.138;2022-09-09T07:59:41;19.90;75.90
4223;DHT22;2125;51.436;14.138;2022-09-09T08:02:09;19.90;77.40
4223;DHT22;2125;51.436;14.138;2022-09-09T08:04:36;19.90;77.90
4223;DHT22;2125;51.436;14.138;2022-09-09T08:07:03;19.80;77.10
4223;DHT22;2125;51.436;14.138;2022-09-09T08:09:30;19.80;76.80
4223;DHT22;2125;51.436;14.138;2022-09-09T08:11:57;20.00;76.80
4223;DHT22;2125;51.436;14.138;2022-09-09T08:14:25;20.10;76.10
4223;DHT22;2125;51.436;14.138;2022-09-09T08:16:52;19.90;73.90
4223;DHT22;2125;51.436;14.138;2022-09-09T08:19:20;19.90;76.10
4223;DHT22;2125;51.436;14.138;2022-09-09T08:21:48;20.00;77.70
4223;DHT22;2125;51.436;14.138;2022-09-09T08:24:15;19.90;77.30
4223;DHT22;2125;51.436;14.138;2022-09-09T08:26:43;19.90;77.00
4223;DHT22;2125;51.436;14.138;2022-09-09T08:29:11;20.10;76.30
4223;DHT22;2125;51.436;14.138;2022-09-09T08:31:40;20.20;76.40
4223;DHT22;2125;51.436;14.138;2022-09-09T08:34:08;20.40;77.50
4223;DHT22;2125;51.436;14.138;2022-09-09T08:36:38;20.50;76.70
4223;DHT22;2125;51.436;14.138;2022-09-09T08:39:07;20.70;75.10
4223;DHT22;2125;51.436;14.138;2022-09-09T08:41:52;20.90;74.00
4223;DHT22;2125;51.436;14.138;2022-09-09T08:44:35;21.00;74.60
4223;DHT22;2125;51.436;14.138;2022-09-09T08:47:10;21.10;74.90
4223;DHT22;2125;51.436;14.138;2022-09-09T08:49:56;21.50;74.90
4223;DHT22;2125;51.436;14.138;2022-09-09T08:52:29;21.60;73.50
4223;DHT22;2125;51.436;14.138;2022-09-09T08:54:58;21.80;74.00
4223;DHT22;2125;51.436;14.138;2022-09-09T08:57:29;21.90;73.00
4223;DHT22;2125;51.436;14.138;2022-09-09T08:59:58;22.00;73.00
4223;DHT22;2125;51.436;14.138;2022-09-09T09:02:30;22.00;72.80
4223;DHT22;2125;51.436;14.138;2022-09-09T09:05:09;22.10;70.80
4223;DHT22;2125;51.436;14.138;2022-09-09T09:07:50;22.10;73.70
4223;DHT22;2125;51.436;14.138;2022-09-09T09:10:29;21.80;73.20
4223;DHT22;2125;51.436;14.138;2022-09-09T09:13:01;21.50;73.40
4223;DHT22;2125;51.436;14.138;2022-09-09T09:15:32;21.20;71.30
4223;DHT22;2125;51.436;14.138;2022-09-09T09:18:02;21.20;75.00
4223;DHT22;2125;51.436;14.138;2022-09-09T09:20:35;21.40;74.90
4223;DHT22;2125;51.436;14.138;2022-09-09T09:23:06;21.40;74.40
4223;DHT22;2125;51.436;14.138;2022-09-09T09:25:41;21.50;75.50
4223;DHT22;2125;51.436;14.138;2022-09-09T09:28:15;21.50;74.60
4223;DHT22;2125;51.436;14.138;2022-09-09T09:30:48;21.80;73.10
4223;DHT22;2125;51.436;14.138;2022-09-09T09:33:26;22.00;74.30
4223;DHT22;2125;51.436;14.138;2022-09-09T09:35:53;22.00;73.20
4223;DHT22;2125;51.436;14.138;2022-09-09T09:38:26;21.80;73.00
4223;DHT22;2125;51.436;14.138;2022-09-09T09:40:55;21.80;75.10
4223;DHT22;2125;51.436;14.138;2022-09-09T09:43:26;21.70;74.20
4223;DHT22;2125;51.436;14.138;2022-09-09T09:45:53;21.70;74.20
4223;DHT22;2125;51.436;14.138;2022-09-09T09:48:20;21.90;73.50
4223;DHT22;2125;51.436;14.138;2022-09-09T09:50:52;22.10;72.90
4223;DHT22;2125;51.436;14.138;2022-09-09T09:53:24;22.10;73.00
4223;DHT22;2125;51.436;14.138;2022-09-09T09:55:55;22.20;73.60
4223;DHT22;2125;51.436;14.138;2022-09-09T09:58:23;22.40;74.30
4223;DHT22;2125;51.436;14.138;2022-09-09T10:00:52;22.50;71.60
4223;DHT22;2125;51.436;14.138;2022-09-09T10:03:25;22.30;71.00
4223;DHT22;2125;51.436;14.138;2022-09-09T10:05:53;22.00;73.10
4223;DHT22;2125;51.436;14.138;2022-09-09T10:08:23;21.70;71.80
4223;DHT22;2125;51.436;14.138;2022-09-09T10:11:18;21.40;74.40
4223;DHT22;2125;51.436;14.138;2022-09-09T10:13:53;21.30;74.80
4223;DHT22;2125;51.436;14.138;2022-09-09T10:16:34;21.00;75.00
4223;DHT22;2125;51.436;14.138;2022-09-09T10:19:05;20.70;76.90
4223;DHT22;2125;51.436;14.138;2022-09-09T10:21:52;20.40;78.40
4223;DHT22;2125;51.436;14.138;2022-09-09T10:24:46;20.20;78.10
4223;DHT22;2125;51.436;14.138;2022-09-09T10:27:21;20.10;79.10
4223;DHT22;2125;51.436;14.138;2022-09-09T10:30:04;19.70;80.70
4223;DHT22;2125;51.436;14.138;2022-09-09T10:32:43;19.50;82.20
4223;DHT22;2125;51.436;14.138;2022-09-09T10:35:27;19.20;82.60
4223;DHT22;2125;51.436;14.138;2022-09-09T10:38:11;18.90;82.80
4223;DHT22;2125;51.436;14.138;2022-09-09T10:40:43;18.90;83.40
4223;DHT22;2125;51.436;14.138;2022-09-09T10:43:24;18.90;83.10
4223;DHT22;2125;51.436;14.138;2022-09-09T10:46:04;19.00;83.10
4223;DHT22;2125;51.436;14.138;2022-09-09T10:48:41;19.10;83.00
4223;DHT22;2125;51.436;14.138;2022-09-09T10:51:22;19.40;83.00
4223;DHT22;2125;51.436;14.138;2022-09-09T10:54:02;19.80;82.40
4223;DHT22;2125;51.436;14.138;2022-09-09T10:56:33;20.20;82.10
4223;DHT22;2125;51.436;14.138;2022-09-09T10:59:06;20.40;81.30
4223;DHT22;2125;51.436;14.138;2022-09-09T11:01:39;20.60;81.20
4223;DHT22;2125;51.436;14.138;2022-09-09T11:04:13;20.90;80.50
4223;DHT22;2125;51.436;14.138;2022-09-09T11:06:45;20.90;79.70
4223;DHT22;2125;51.436;14.138;2022-09-09T11:09:18;20.90;80.70
4223;DHT22;2125;51.436;14.138;2022-09-09T11:11:50;21.10;79.90
4223;DHT22;2125;51.436;14.138;2022-09-09T11:14:22;21.40;78.80
4223;DHT22;2125;51.436;14.138;2022-09-09T11:16:54;21.60;77.30
4223;DHT22;2125;51.436;14.138;2022-09-09T11:19:26;21.60;78.30
4223;DHT22;2125;51.436;14.138;2022-09-09T11:21:55;22.00;76.40
4223;DHT22;2125;51.436;14.138;2022-09-09T11:24:28;22.10;74.40
4223;DHT22;2125;51.436;14.138;2022-09-09T11:27:01;21.90;73.80
4223;DHT22;2125;51.436;14.138;2022-09-09T11:32:34;21.80;74.80
4223;DHT22;2125;51.436;14.138;2022-09-09T11:35:19;21.60;76.80
4223;DHT22;2125;51.436;14.138;2022-09-09T11:38:04;21.40;75.00
4223;DHT22;2125;51.436;14.138;2022-09-09T11:40:37;21.30;77.60
4223;DHT22;2125;51.436;14.138;2022-09-09T11:43:10;21.20;74.60
4223;DHT22;2125;51.436;14.138;2022-09-09T11:45:39;21.10;73.70
4223;DHT22;2125;51.436;14.138;2022-09-09T11:48:22;21.10;75.00
4223;DHT22;2125;51.436;14.138;2022-09-09T11:50:58;21.30;75.50
4223;DHT22;2125;51.436;14.138;2022-09-09T11:53:25;21.30;74.60
4223;DHT22;2125;51.436;14.138;2022-09-09T11:56:10;21.40;74.40
4223;DHT22;2125;51.436;14.138;2022-09-09T11:58:54;21.40;73.70
4223;DHT22;2125;51.436;14.138;2022-09-09T12:01:35;21.60;73.00
4223;DHT22;2125;51.436;14.138;2022-09-09T12:04:13;21.80;73.00
4223;DHT22;2125;51.436;14.138;2022-09-09T12:06:45;21.80;74.10
4223;DHT22;2125;51.436;14.138;2022-09-09T12:09:19;21.70;70.00
4223;DHT22;2125;51.436;14.138;2022-09-09T12:11:49;21.50;71.80
4223;DHT22;2125;51.436;14.138;2022-09-09T12:14:22;21.30;71.90
4223;DHT22;2125;51.436;14.138;2022-09-09T12:16:51;21.30;73.30
4223;DHT22;2125;51.436;14.138;2022-09-09T12:26:26;21.60;73.70
4223;DHT22;2125;51.436;14.138;2022-09-09T12:29:01;21.70;73.10
4223;DHT22;2125;51.436;14.138;2022-09-09T12:31:35;21.70;73.70
4223;DHT22;2125;51.436;14.138;2022-09-09T12:34:16;21.60;74.00
4223;DHT22;2125;51.436;14.138;2022-09-09T12:43:49;22.10;75.60
4223;DHT22;2125;51.436;14.138;2022-09-09T13:34:14;22.50;71.80
4223;DHT22;2125;51.436;14.138;2022-09-09T13:36:57;22.50;72.00
4223;DHT22;2125;51.436;14.138;2022-09-09T13:39:27;22.40;71.10
4223;DHT22;2125;51.436;14.138;2022-09-09T13:41:54;22.30;72.90
4223;DHT22;2125;51.436;14.138;2022-09-09T13:44:23;22.30;74.30
4223;DHT22;2125;51.436;14.138;2022-09-09T13:47:02;22.40;74.20
4223;DHT22;2125;51.436;14.138;2022-09-09T13:49:31;22.60;71.70
4223;DHT22;2125;51.436;14.138;2022-09-09T13:52:11;22.60;71.50
4223;DHT22;2125;51.436;14.138;2022-09-09T13:54:38;22.70;71.40
4223;DHT22;2125;51.436;14.138;2022-09-09T13:57:11;22.50;72.00
4223;DHT22;2125;51.436;14.138;2022-09-09T13:59:40;22.40;71.80
4223;DHT22;2125;51.436;14.138;2022-09-09T14:02:07;22.20;73.00
4223;DHT22;2125;51.436;14.138;2022-09-09T14:04:35;22.10;74.10
4223;DHT22;2125;51.436;14.138;2022-09-09T14:07:02;22.00;73.60
4223;DHT22;2125;51.436;14.138;2022-09-09T14:09:29;21.90;74.80
4223;DHT22;2125;51.436;14.138;2022-09-09T14:11:56;21.80;74.90
4223;DHT22;2125;51.436;14.138;2022-09-09T14:14:23;21.70;76.50
4223;DHT22;2125;51.436;14.138;2022-09-09T14:16:50;21.60;76.90
4223;DHT22;2125;51.436;14.138;2022-09-09T14:19:17;21.70;77.30
4223;DHT22;2125;51.436;14.138;2022-09-09T14:21:45;21.70;77.30
4223;DHT22;2125;51.436;14.138;2022-09-09T14:24:11;21.80;78.10
4223;DHT22;2125;51.436;14.138;2022-09-09T14:26:39;21.80;77.40
4223;DHT22;2125;51.436;14.138;2022-09-09T14:29:06;22.00;76.80
4223;DHT22;2125;51.436;14.138;2022-09-09T14:31:33;22.10;77.10
4223;DHT22;2125;51.436;14.138;2022-09-09T16:01:51;22.50;70.20
4223;DHT22;2125;51.436;14.138;2022-09-09T16:04:18;22.50;69.40
4223;DHT22;2125;51.436;14.138;2022-09-09T16:06:49;22.50;69.70
4223;DHT22;2125;51.436;14.138;2022-09-09T16:09:16;22.60;70.60
4223;DHT22;2125;51.436;14.138;2022-09-09T16:11:43;22.70;70.10
4223;DHT22;2125;51.436;14.138;2022-09-09T16:14:11;22.60;70.20
4223;DHT22;2125;51.436;14.138;2022-09-09T16:16:38;22.70;70.30
4223;DHT22;2125;51.436;14.138;2022-09-09T16:19:09;22.80;69.30
4223;DHT22;2125;51.436;14.138;2022-09-09T16:21:38;22.90;68.10
4223;DHT22;2125;51.436;14.138;2022-09-09T16:24:07;22.90;68.50
4223;DHT22;2125;51.436;14.138;2022-09-09T16:26:36;22.90;67.30
4223;DHT22;2125;51.436;14.138;2022-09-09T16:29:03;22.80;67.70
4223;DHT22;2125;51.436;14.138;2022-09-09T16:31:31;22.70;67.40
4223;DHT22;2125;51.436;14.138;2022-09-09T16:33:58;22.40;68.10
4223;DHT22;2125;51.436;14.138;2022-09-09T16:36:28;22.20;68.20
4223;DHT22;2125;51.436;14.138;2022-09-09T16:38:57;22.00;67.70
4223;DHT22;2125;51.436;14.138;2022-09-09T16:41:24;21.70;68.10
4223;DHT22;2125;51.436;14.138;2022-09-09T16:43:52;21.30;69.80
4223;DHT22;2125;51.436;14.138;2022-09-09T16:46:19;21.10;71.10
4223;DHT22;2125;51.436;14.138;2022-09-09T16:48:48;20.90;71.90
4223;DHT22;2125;51.436;14.138;2022-09-09T16:51:17;20.70;72.60
4223;DHT22;2125;51.436;14.138;2022-09-09T16:53:45;20.40;73.70
4223;DHT22;2125;51.436;14.138;2022-09-09T16:56:14;20.20;74.70
4223;DHT22;2125;51.436;14.138;2022-09-09T16:58:41;20.10;75.30
4223;DHT22;2125;51.436;14.138;2022-09-09T17:01:10;20.10;75.60
4223;DHT22;2125;51.436;14.138;2022-09-09T17:03:39;20.00;75.50
4223;DHT22;2125;51.436;14.138;2022-09-09T17:06:09;19.80;76.50
4223;DHT22;2125;51.436;14.138;2022-09-09T17:08:36;19.60;77.10
4223;DHT22;2125;51.436;14.138;2022-09-09T17:11:11;19.40;78.00
4223;DHT22;2125;51.436;14.138;2022-09-09T17:13:38;19.20;78.60
4223;DHT22;2125;51.436;14.138;2022-09-09T17:16:05;19.10;79.20
4223;DHT22;2125;51.436;14.138;2022-09-09T17:18:33;19.00;79.50
4223;DHT22;2125;51.436;14.138;2022-09-09T17:21:03;19.00;79.70
4223;DHT22;2125;51.436;14.138;2022-09-09T17:23:29;18.90;79.90
4223;DHT22;2125;51.436;14.138;2022-09-09T17:25:56;18.90;80.40
4223;DHT22;2125;51.436;14.138;2022-09-09T17:28:24;18.90;81.50
4223;DHT22;2125;51.436;14.138;2022-09-09T17:30:56;18.70;81.40
4223;DHT22;2125;51.436;14.138;2022-09-09T17:33:27;18.60;80.80
4223;DHT22;2125;51.436;14.138;2022-09-09T17:35:56;18.50;80.80
4223;DHT22;2125;51.436;14.138;2022-09-09T17:38:23;18.50;80.10
4223;DHT22;2125;51.436;14.138;2022-09-09T17:40:50;18.50;79.50
4223;DHT22;2125;51.436;14.138;2022-09-09T17:43:18;18.40;78.60
4223;DHT22;2125;51.436;14.138;2022-09-09T17:45:46;18.40;78.90
4223;DHT22;2125;51.436;14.138;2022-09-09T17:48:13;18.40;78.40
4223;DHT22;2125;51.436;14.138;2022-09-09T17:50:40;18.40;78.30
4223;DHT22;2125;51.436;14.138;2022-09-09T17:53:07;18.40;77.90
4223;DHT22;2125;51.436;14.138;2022-09-09T17:55:33;18.40;78.10
4223;DHT22;2125;51.436;14.138;2022-09-09T17:58:00;18.40;78.00
4223;DHT22;2125;51.436;14.138;2022-09-09T18:00:27;18.40;78.20
4223;DHT22;2125;51.436;14.138;2022-09-09T18:02:56;18.40;78.10
4223;DHT22;2125;51.436;14.138;2022-09-09T18:05:24;18.50;78.70
4223;DHT22;2125;51.436;14.138;2022-09-09T18:07:50;18.40;78.10
4223;DHT22;2125;51.436;14.138;2022-09-09T18:10:17;18.50;78.90
4223;DHT22;2125;51.436;14.138;2022-09-09T18:12:44;18.40;79.60
4223;DHT22;2125;51.436;14.138;2022-09-09T18:15:10;18.30;79.40
4223;DHT22;2125;51.436;14.138;2022-09-09T18:51:42;17.60;79.30
4223;DHT22;2125;51.436;14.138;2022-09-09T18:54:12;17.40;79.60
4223;DHT22;2125;51.436;14.138;2022-09-09T18:56:41;17.30;80.30
4223;DHT22;2125;51.436;14.138;2022-09-09T18:59:10;17.20;80.90
4223;DHT22;2125;51.436;14.138;2022-09-09T19:01:37;17.10;81.40
4223;DHT22;2125;51.436;14.138;2022-09-09T19:04:07;17.00;81.70
4223;DHT22;2125;51.436;14.138;2022-09-09T19:06:44;16.80;82.00
4223;DHT22;2125;51.436;14.138;2022-09-09T19:09:15;16.80;82.50
4223;DHT22;2125;51.436;14.138;2022-09-09T19:11:45;16.80;82.80
4223;DHT22;2125;51.436;14.138;2022-09-09T19:14:13;16.70;82.70
4223;DHT22;2125;51.436;14.138;2022-09-09T19:16:43;16.70;82.70
4223;DHT22;2125;51.436;14.138;2022-09-09T19:19:11;16.80;82.80
4223;DHT22;2125;51.436;14.138;2022-09-09T19:21:40;16.70;82.90
4223;DHT22;2125;51.436;14.138;2022-09-09T19:24:11;16.70;83.00
4223;DHT22;2125;51.436;14.138;2022-09-09T19:26:43;16.70;83.00
4223;DHT22;2125;51.436;14.138;2022-09-09T19:29:12;16.70;82.90